createdAt,value
2023-11-08T00:00:00.722Z,9.4
2023-11-08T00:05:00.660Z,6.8
2023-11-08T00:10:00.732Z,9.4
2023-11-08T00:15:02.554Z,8.3
2023-11-08T00:20:00.675Z,7.2
2023-11-08T00:25:00.661Z,6.5
2023-11-08T00:30:00.712Z,5.8
2023-11-08T00:35:00.794Z,8.3
2023-11-08T00:40:00.822Z,3.6
2023-11-08T00:45:00.710Z,3.2
2023-11-08T00:50:00.729Z,6.1
2023-11-08T00:55:00.641Z,2.5
2023-11-08T01:00:00.652Z,1.4
2023-11-08T01:05:00.872Z,5.0
2023-11-08T01:10:00.714Z,5.0
2023-11-08T01:15:00.674Z,8.3
2023-11-08T01:20:00.698Z,10.1
2023-11-08T01:25:00.685Z,3.2
2023-11-08T01:30:00.690Z,7.2
2023-11-08T01:35:00.689Z,5.0
2023-11-08T01:40:00.703Z,3.2
2023-11-08T01:45:00.681Z,5.0
2023-11-08T01:50:00.814Z,5.0
2023-11-08T01:55:00.658Z,10.1
2023-11-08T02:00:00.762Z,6.8
2023-11-08T02:05:00.750Z,5.8
2023-11-08T02:10:00.688Z,2.2
2023-11-08T02:15:00.799Z,7.6
2023-11-08T02:20:00.691Z,6.5
2023-11-08T02:25:00.764Z,2.2
2023-11-08T02:30:00.653Z,9.0
2023-11-08T02:35:00.646Z,5.8
2023-11-08T02:40:00.694Z,5.8
2023-11-08T02:45:00.715Z,5.0
2023-11-08T02:50:00.848Z,5.8
2023-11-08T02:55:00.651Z,13.3
2023-11-08T03:00:00.701Z,9.4
2023-11-08T03:05:00.973Z,8.3
2023-11-08T03:10:00.668Z,10.4
2023-11-08T03:15:00.668Z,3.6
2023-11-08T03:20:00.795Z,7.6
2023-11-08T03:25:00.673Z,5.8
2023-11-08T03:30:00.689Z,7.2
2023-11-08T03:35:00.671Z,8.3
2023-11-08T03:40:00.720Z,10.1
2023-11-08T03:45:00.759Z,0.0
2023-11-08T03:50:00.685Z,9.0
2023-11-08T03:55:00.931Z,2.2
2023-11-08T04:00:00.668Z,3.2
2023-11-08T04:05:00.710Z,7.6
2023-11-08T04:10:00.823Z,5.0
2023-11-08T04:15:00.688Z,11.2
2023-11-08T04:20:00.753Z,6.1
2023-11-08T04:25:00.686Z,14.4
2023-11-08T04:30:00.669Z,12.2
2023-11-08T04:35:00.670Z,8.3
2023-11-08T04:40:00.781Z,14.4
2023-11-08T04:45:00.756Z,8.3
2023-11-08T04:50:00.695Z,10.4
2023-11-08T04:55:00.793Z,10.4
2023-11-08T05:00:00.680Z,14.4
2023-11-08T05:05:00.643Z,11.9
2023-11-08T05:10:01.124Z,18.7
2023-11-08T05:15:00.755Z,8.3
2023-11-08T05:20:00.676Z,11.9
2023-11-08T05:25:00.645Z,14.8
2023-11-08T05:30:00.686Z,11.2
2023-11-08T05:35:00.743Z,15.1
2023-11-08T05:40:00.910Z,15.1
2023-11-08T05:45:00.670Z,16.6
2023-11-08T05:50:00.716Z,15.8
2023-11-08T05:55:00.749Z,9.7
2023-11-08T06:00:00.702Z,6.1
2023-11-08T06:05:00.721Z,12.2
2023-11-08T06:10:00.736Z,16.9
2023-11-08T06:15:00.664Z,13.0
2023-11-08T06:20:01.104Z,14.4
2023-11-08T06:25:00.841Z,16.6
2023-11-08T06:30:00.770Z,16.6
2023-11-08T06:35:00.725Z,5.8
2023-11-08T06:40:00.740Z,11.9
2023-11-08T06:45:01.064Z,11.2
2023-11-08T06:50:00.765Z,7.6
2023-11-08T06:55:00.955Z,6.5
2023-11-08T07:00:00.727Z,10.8
2023-11-08T07:05:00.668Z,15.5
2023-11-08T07:10:00.861Z,15.8
2023-11-08T07:15:00.770Z,12.6
2023-11-08T07:20:00.745Z,9.7
2023-11-08T07:25:00.708Z,12.2
2023-11-08T07:30:00.695Z,14.8
2023-11-08T07:35:00.796Z,9.4
2023-11-08T07:40:00.937Z,7.2
2023-11-08T07:45:00.786Z,12.2
2023-11-08T07:50:00.805Z,12.2
2023-11-08T07:55:00.850Z,15.5
2023-11-08T08:00:00.757Z,17.6
2023-11-08T08:05:01.108Z,14.8
2023-11-08T08:10:00.833Z,21.2
2023-11-08T08:15:00.695Z,15.8
2023-11-08T08:20:02.410Z,16.2
2023-11-08T08:25:00.961Z,16.6
2023-11-08T08:30:00.724Z,14.4
2023-11-08T08:35:03.650Z,15.5
2023-11-08T08:40:00.962Z,16.9
2023-11-08T08:45:00.719Z,27.4
2023-11-08T08:50:00.921Z,21.2
2023-11-08T08:55:00.862Z,26.3
2023-11-08T09:00:00.701Z,10.8
2023-11-08T09:05:00.808Z,14.4
2023-11-08T09:10:00.876Z,18.4
2023-11-08T09:15:00.736Z,20.9
2023-11-08T09:20:00.816Z,28.1
2023-11-08T09:25:00.877Z,19.8
2023-11-08T09:30:00.720Z,28.8
2023-11-08T09:35:01.406Z,32.4
2023-11-08T09:40:00.913Z,13.7
2023-11-08T09:45:00.708Z,22.7
2023-11-08T09:50:01.090Z,11.9
2023-11-08T09:55:00.786Z,24.5
2023-11-08T10:00:03.354Z,19.4
2023-11-08T10:05:01.521Z,26.3
2023-11-08T10:10:01.134Z,28.1
2023-11-08T10:15:00.667Z,32.0
2023-11-08T10:20:02.609Z,18.4
2023-11-08T10:25:00.747Z,18.0
2023-11-08T10:30:00.702Z,16.9
2023-11-08T10:35:00.691Z,18.7
2023-11-08T10:40:00.979Z,23.8
2023-11-08T10:45:00.693Z,20.5
2023-11-08T10:50:00.832Z,19.4
2023-11-08T10:55:00.757Z,23.0
2023-11-08T11:00:00.945Z,16.9
2023-11-08T11:05:00.832Z,20.9
2023-11-08T11:10:01.017Z,18.7
2023-11-08T11:15:00.816Z,18.0
2023-11-08T11:20:00.890Z,16.2
2023-11-08T11:25:06.003Z,17.3
2023-11-08T11:30:00.724Z,14.4
2023-11-08T11:35:00.689Z,15.8
2023-11-08T11:40:00.869Z,17.6
2023-11-08T11:45:00.804Z,16.6
2023-11-08T11:50:00.713Z,13.7
2023-11-08T11:55:00.868Z,15.8
2023-11-08T12:00:00.900Z,10.8
2023-11-08T12:05:01.295Z,19.4
2023-11-08T12:10:00.862Z,18.0
2023-11-08T12:15:00.664Z,8.6
2023-11-08T12:20:00.696Z,24.1
2023-11-08T12:25:00.764Z,19.8
2023-11-08T12:30:00.750Z,13.0
2023-11-08T12:35:00.711Z,17.3
2023-11-08T12:40:00.854Z,20.9
2023-11-08T12:45:00.728Z,14.4
2023-11-08T12:50:00.691Z,15.1
2023-11-08T12:55:00.858Z,16.2
2023-11-08T13:00:00.871Z,12.6
2023-11-08T13:05:00.928Z,11.5
2023-11-08T13:10:00.857Z,14.4
2023-11-08T13:15:00.710Z,10.8
2023-11-08T13:20:00.932Z,14.8
2023-11-08T13:25:00.874Z,9.4
2023-11-08T13:30:00.730Z,15.8
2023-11-08T13:35:00.678Z,18.0
2023-11-08T13:40:00.821Z,14.8
2023-11-08T13:45:00.725Z,10.1
2023-11-08T13:50:00.719Z,6.5
2023-11-08T13:55:01.136Z,14.0
2023-11-08T14:00:00.731Z,6.5
2023-11-08T14:05:00.829Z,6.5
2023-11-08T14:10:00.977Z,14.4
2023-11-08T14:15:00.685Z,13.7
2023-11-08T14:20:00.905Z,15.5
2023-11-08T14:25:00.802Z,20.5
2023-11-08T14:30:01.289Z,7.2
2023-11-08T14:35:01.232Z,11.9
2023-11-08T14:40:00.943Z,26.3
2023-11-08T14:45:00.688Z,19.8
2023-11-08T14:50:00.732Z,15.5
2023-11-08T14:55:00.831Z,18.0
2023-11-08T15:00:00.689Z,8.6
2023-11-08T15:05:00.884Z,5.0
2023-11-08T15:10:02.414Z,12.6
2023-11-08T15:15:00.691Z,9.7
2023-11-08T15:20:00.747Z,12.6
2023-11-08T15:25:00.853Z,8.6
2023-11-08T15:30:00.738Z,9.4
2023-11-08T15:35:00.907Z,7.9
2023-11-08T15:40:00.873Z,3.6
2023-11-08T15:45:00.977Z,8.6
2023-11-08T15:50:00.722Z,12.6
2023-11-08T15:55:00.773Z,6.5
2023-11-08T16:00:00.733Z,9.4
2023-11-08T16:05:00.819Z,5.0
2023-11-08T16:10:00.884Z,0.0
2023-11-08T16:15:00.717Z,1.8
2023-11-08T16:20:01.270Z,2.9
2023-11-08T16:25:00.892Z,0.0
2023-11-08T16:30:00.742Z,1.4
2023-11-08T16:35:01.752Z,4.0
2023-11-08T16:40:00.793Z,0.0
2023-11-08T16:45:00.697Z,3.6
2023-11-08T16:50:00.751Z,4.7
2023-11-08T16:55:01.189Z,1.8
2023-11-08T17:00:00.716Z,5.0
2023-11-08T17:05:01.303Z,4.0
2023-11-08T17:10:01.022Z,0.0
2023-11-08T17:15:00.651Z,4.3
2023-11-08T17:20:00.677Z,4.7
2023-11-08T17:25:00.836Z,3.6
2023-11-08T17:30:00.694Z,0.0
2023-11-08T17:35:00.965Z,1.8
2023-11-08T17:40:00.915Z,4.7
2023-11-08T17:45:00.649Z,7.9
2023-11-08T17:50:00.899Z,6.8
2023-11-08T17:55:00.829Z,7.6
2023-11-08T18:00:00.682Z,5.0
2023-11-08T18:05:00.739Z,5.8
2023-11-08T18:10:00.934Z,7.2
2023-11-08T18:15:00.707Z,4.0
2023-11-08T18:20:00.721Z,9.0
2023-11-08T18:25:00.788Z,14.0
2023-11-08T18:30:00.674Z,4.3
2023-11-08T18:35:01.006Z,8.3
2023-11-08T18:40:00.883Z,7.6
2023-11-08T18:45:00.652Z,7.2
2023-11-08T18:50:00.770Z,5.4
2023-11-08T18:55:00.769Z,4.0
2023-11-08T19:00:00.714Z,2.9
2023-11-08T19:05:01.044Z,8.3
2023-11-08T19:10:00.777Z,6.5
2023-11-08T19:15:00.649Z,5.0
2023-11-08T19:20:00.706Z,4.0
2023-11-08T19:25:00.806Z,6.1
2023-11-08T19:30:00.712Z,7.2
2023-11-08T19:35:00.644Z,4.7
2023-11-08T19:40:00.879Z,9.7
2023-11-08T19:45:00.704Z,9.0
2023-11-08T19:50:00.925Z,7.2
2023-11-08T19:55:00.885Z,5.0
2023-11-08T20:00:00.670Z,6.5
2023-11-08T20:05:00.845Z,2.5
2023-11-08T20:10:00.843Z,6.5
2023-11-08T20:15:00.692Z,7.9
2023-11-08T20:20:00.741Z,13.7
2023-11-08T20:25:00.842Z,0.0
2023-11-08T20:30:00.698Z,6.5
2023-11-08T20:35:01.033Z,6.5
2023-11-08T20:40:00.926Z,5.0
2023-11-08T20:45:00.658Z,3.6
2023-11-08T20:50:00.977Z,2.5
2023-11-08T20:55:04.923Z,5.0
2023-11-08T21:00:00.728Z,9.7
2023-11-08T21:05:00.695Z,3.6
2023-11-08T21:10:00.812Z,5.0
2023-11-08T21:15:00.660Z,5.0
2023-11-08T21:20:00.677Z,4.0
2023-11-08T21:25:01.000Z,2.5
2023-11-08T21:30:00.699Z,7.9
2023-11-08T21:35:00.714Z,5.8
2023-11-08T21:40:00.975Z,4.0
2023-11-08T21:45:00.706Z,5.8
2023-11-08T21:50:01.026Z,3.2
2023-11-08T21:55:00.788Z,4.7
2023-11-08T22:00:00.695Z,7.9
2023-11-08T22:05:00.829Z,3.6
2023-11-08T22:10:00.921Z,4.0
2023-11-08T22:15:00.843Z,6.8
2023-11-08T22:20:01.115Z,10.1
2023-11-08T22:25:00.763Z,7.2
2023-11-08T22:30:00.672Z,5.4
2023-11-08T22:35:00.723Z,9.4
2023-11-08T22:40:00.869Z,0.0
2023-11-08T22:45:00.693Z,6.5
2023-11-08T22:50:00.696Z,2.9
2023-11-08T22:55:01.281Z,5.8
2023-11-08T23:00:00.782Z,9.0
2023-11-08T23:05:00.977Z,5.8
2023-11-08T23:10:00.752Z,9.0
2023-11-08T23:15:12.623Z,9.7
2023-11-08T23:20:01.023Z,6.8
2023-11-08T23:25:00.781Z,6.1
2023-11-08T23:30:00.721Z,5.8
2023-11-08T23:35:00.727Z,5.4
2023-11-08T23:40:01.692Z,6.8
2023-11-08T23:45:00.703Z,6.1
2023-11-08T23:50:00.710Z,10.8
2023-11-08T23:55:00.814Z,11.2
